createdAt,value
2019-06-20T08:47:58.197Z,69.05
2019-06-20T08:50:28.448Z,68.00
2019-06-20T08:52:58.487Z,67.89
2019-06-20T08:55:28.525Z,66.18
2019-06-20T08:57:59.438Z,66.97
2019-06-20T09:00:30.486Z,66.86
2019-06-20T09:03:00.424Z,66.83
2019-06-20T09:05:30.920Z,66.48
2019-06-20T09:10:38.540Z,64.51
2019-06-20T09:13:09.176Z,64.45
2019-06-20T09:15:38.495Z,62.88
2019-06-20T09:18:07.708Z,64.46
2019-06-20T09:20:37.097Z,62.53
2019-06-20T09:23:06.627Z,62.51
2019-06-20T09:25:36.092Z,62.83
2019-06-20T09:28:07.081Z,63.52
2019-06-20T09:30:37.082Z,63.55
2019-06-20T09:33:06.584Z,64.14
2019-06-20T09:35:35.985Z,59.97
2019-06-20T09:38:05.466Z,59.72
2019-06-20T09:40:34.724Z,58.63
2019-06-20T09:43:03.986Z,59.89
2019-06-20T09:45:33.345Z,60.98
2019-06-20T09:48:02.820Z,62.93
2019-06-20T09:50:32.230Z,61.57
2019-06-20T09:53:01.670Z,62.95
2019-06-20T09:55:30.856Z,58.76
2019-06-20T09:58:00.300Z,58.29
2019-06-20T10:00:31.200Z,57.79
2019-06-20T10:03:03.726Z,57.27
2019-06-20T10:05:32.942Z,55.88
2019-06-20T10:08:02.243Z,56.87
2019-06-20T10:10:31.543Z,57.91
2019-06-20T10:13:01.026Z,57.89
2019-06-20T10:15:30.561Z,57.94
2019-06-20T10:17:59.639Z,58.22
2019-06-20T10:20:28.950Z,58.39
2019-06-20T10:22:58.179Z,60.53
2019-06-20T10:25:27.272Z,57.43
2019-06-20T10:27:57.854Z,57.57
2019-06-20T10:30:27.862Z,57.22
2019-06-20T10:32:57.785Z,57.05
2019-06-20T10:35:27.368Z,56.58
2019-06-20T10:37:57.140Z,54.91
2019-06-20T10:40:26.600Z,54.52
2019-06-20T10:42:56.935Z,52.52
2019-06-20T10:45:26.947Z,52.23
2019-06-20T10:47:56.392Z,52.68
2019-06-20T10:50:25.680Z,52.46
2019-06-20T10:52:55.049Z,49.85
2019-06-20T10:55:24.896Z,50.33
2019-06-20T10:57:54.275Z,49.74
2019-06-20T11:00:31.256Z,51.56
2019-06-20T11:02:55.274Z,52.46
2019-06-20T11:05:25.128Z,49.84
2019-06-20T11:07:54.219Z,49.87
2019-06-20T11:10:24.179Z,50.69
2019-06-20T11:12:55.966Z,53.30
2019-06-20T11:15:24.471Z,52.68
2019-06-20T11:17:56.319Z,54.75
2019-06-20T11:20:26.073Z,55.83
2019-06-20T11:22:55.205Z,57.34
2019-06-20T11:25:24.302Z,60.34
2019-06-20T11:27:53.513Z,63.88
2019-06-20T11:30:24.516Z,69.80
2019-06-20T11:32:53.805Z,76.44
2019-06-20T11:35:22.916Z,71.39
2019-06-20T11:37:52.360Z,65.11
2019-06-20T11:40:21.539Z,63.50
2019-06-20T11:42:50.756Z,63.10
2019-06-20T11:45:20.086Z,62.13
2019-06-20T11:47:49.150Z,62.43
2019-06-20T11:50:18.591Z,63.83
2019-06-20T11:52:47.660Z,64.81
2019-06-20T11:55:17.685Z,65.04
2019-06-20T11:57:46.938Z,67.15
2019-06-20T12:00:17.681Z,67.71
2019-06-20T12:02:50.426Z,66.66
2019-06-20T12:05:19.720Z,68.70
2019-06-20T12:07:49.991Z,68.63
2019-06-20T12:10:19.535Z,66.99
2019-06-20T12:12:49.151Z,64.00
2019-06-20T12:15:19.374Z,64.59
2019-06-20T12:17:49.433Z,63.78
2019-06-20T12:20:20.841Z,63.67
2019-06-20T12:22:50.736Z,62.89
2019-06-20T12:25:20.930Z,62.59
2019-06-20T12:27:50.495Z,62.68
2019-06-20T12:30:20.228Z,62.81
2019-06-20T12:32:49.710Z,62.48
2019-06-20T12:35:19.178Z,63.57
2019-06-20T12:37:49.799Z,64.38
2019-06-20T12:40:19.395Z,62.96
2019-06-20T12:42:49.278Z,63.46
2019-06-20T12:45:19.021Z,61.65
2019-06-20T12:47:48.282Z,59.84
2019-06-20T12:50:19.189Z,61.14
2019-06-20T12:52:49.646Z,62.73
2019-06-20T12:55:18.939Z,62.55
2019-06-20T12:57:48.569Z,62.28
2019-06-20T13:00:18.839Z,63.04
2019-06-20T13:02:49.578Z,62.71
2019-06-20T13:05:19.450Z,62.93
2019-06-20T13:07:48.640Z,62.80
2019-06-20T13:10:18.035Z,62.22
2019-06-20T13:12:48.713Z,62.66
2019-06-20T13:15:19.412Z,63.18
2019-06-20T13:17:49.125Z,63.69
2019-06-20T13:20:19.968Z,64.69
2019-06-20T13:22:49.628Z,64.26
2019-06-20T13:25:19.042Z,65.47
2019-06-20T13:27:48.823Z,64.87
2019-06-20T13:30:20.499Z,65.00
2019-06-20T13:32:49.715Z,65.07
2019-06-20T13:35:18.784Z,65.89
2019-06-20T13:37:49.773Z,64.63
2019-06-20T13:40:19.627Z,65.39
2019-06-20T13:42:50.311Z,66.08
2019-06-20T13:45:22.422Z,64.93
2019-06-20T13:47:51.693Z,64.31
2019-06-20T13:50:21.855Z,67.00
2019-06-20T13:52:51.579Z,65.75
2019-06-20T13:55:20.789Z,65.30
2019-06-20T13:57:49.977Z,65.05
2019-06-20T14:00:20.326Z,65.45
2019-06-20T14:02:51.531Z,65.22
2019-06-20T14:05:20.640Z,64.54
2019-06-20T14:07:53.230Z,65.22
2019-06-20T14:10:20.718Z,66.35
2019-06-20T14:12:50.304Z,66.22
2019-06-20T14:15:19.947Z,67.64
2019-06-20T14:17:49.905Z,65.15
2019-06-20T14:20:20.628Z,64.52
2019-06-20T14:22:49.962Z,63.66
2019-06-20T14:25:20.824Z,64.13
2019-06-20T14:27:51.566Z,63.11
2019-06-20T14:30:21.983Z,62.81
2019-06-20T14:32:53.773Z,62.97
2019-06-20T14:35:24.139Z,62.62
2019-06-20T14:37:55.398Z,63.63
2019-06-20T14:40:24.835Z,62.91
2019-06-20T14:42:54.454Z,63.85
2019-06-20T14:45:24.440Z,63.82
2019-06-20T14:47:53.657Z,64.82
2019-06-20T14:50:23.161Z,65.28
2019-06-20T14:52:53.963Z,64.37
2019-06-20T14:55:25.681Z,65.90
2019-06-20T14:58:00.908Z,67.42
2019-06-20T15:00:30.555Z,67.38
2019-06-20T15:02:59.804Z,67.96
2019-06-20T15:05:28.939Z,67.53
2019-06-20T15:07:58.461Z,67.21
2019-06-20T15:10:27.554Z,65.70
2019-06-20T15:12:56.656Z,64.97
2019-06-20T15:15:25.725Z,64.95
2019-06-20T15:17:56.363Z,64.10
2019-06-20T15:20:26.162Z,63.17
2019-06-20T15:22:56.681Z,61.78
2019-06-20T15:25:25.936Z,61.94
2019-06-20T15:27:55.797Z,60.05
2019-06-20T15:30:26.220Z,60.05
2019-06-20T15:33:07.623Z,56.73
2019-06-20T15:35:26.341Z,56.84
2019-06-20T15:37:55.755Z,56.78
2019-06-20T15:40:25.031Z,55.60
2019-06-20T15:42:55.374Z,55.57
2019-06-20T15:45:26.162Z,55.01
2019-06-20T15:47:55.402Z,55.23
2019-06-20T15:50:24.638Z,54.97
2019-06-20T15:52:53.971Z,54.48
2019-06-20T15:55:23.618Z,54.63
2019-06-20T15:57:54.158Z,54.20
2019-06-20T16:00:24.428Z,53.78
2019-06-20T16:03:05.893Z,53.18
2019-06-20T16:05:24.316Z,52.39
2019-06-20T16:07:53.588Z,53.00
2019-06-20T16:10:22.820Z,53.57
2019-06-20T16:12:51.944Z,53.40
2019-06-20T16:15:24.267Z,54.09
2019-06-20T16:17:53.732Z,54.32
2019-06-20T16:20:24.230Z,55.25
2019-06-20T16:22:53.756Z,55.35
2019-06-20T16:25:23.333Z,56.00
2019-06-20T16:27:52.823Z,56.84
2019-06-20T16:30:22.843Z,57.38
2019-06-20T16:32:52.923Z,57.74
2019-06-20T16:35:22.745Z,56.97
2019-06-20T16:37:51.899Z,56.74
2019-06-20T16:40:46.125Z,57.44
2019-06-20T16:43:16.630Z,57.50
2019-06-20T16:45:46.306Z,56.83
2019-06-20T16:48:15.736Z,56.83
2019-06-20T16:50:45.094Z,56.74
2019-06-20T16:53:21.869Z,57.06
2019-06-20T16:55:51.455Z,58.23
2019-06-20T16:58:20.789Z,58.05
2019-06-20T17:00:49.903Z,58.39
2019-06-20T17:03:19.248Z,59.19
2019-06-20T17:05:48.599Z,59.54
2019-06-20T17:08:17.818Z,59.50
2019-06-20T17:10:46.940Z,60.43
2019-06-20T17:13:16.146Z,60.75
2019-06-20T17:15:45.216Z,60.46
2019-06-20T17:18:14.672Z,59.97
2019-06-20T17:39:29.368Z,60.94
2019-06-20T17:41:58.865Z,61.63
2019-06-20T17:44:28.009Z,61.68
2019-06-20T17:46:57.165Z,61.66
2019-06-20T17:49:26.334Z,61.99
2019-06-20T17:51:55.599Z,62.48
2019-06-20T17:54:24.821Z,62.83
2019-06-20T17:56:53.904Z,63.11
2019-06-20T17:59:23.117Z,61.62
2019-06-20T18:01:52.288Z,60.86
2019-06-20T18:04:21.538Z,61.10
2019-06-20T18:06:50.858Z,61.75
2019-06-20T18:09:19.923Z,62.23
2019-06-20T18:11:49.322Z,60.69
2019-06-20T18:14:18.444Z,59.72
2019-06-20T18:16:47.715Z,57.74
2019-06-20T18:19:16.885Z,57.96
2019-06-20T18:21:46.119Z,57.81
2019-06-20T18:24:15.206Z,57.92
2019-06-20T18:26:44.437Z,57.89
2019-06-20T18:29:13.945Z,58.69
2019-06-20T18:31:43.001Z,58.66
2019-06-20T18:34:12.076Z,57.92
2019-06-20T18:36:43.412Z,57.73
2019-06-20T18:39:12.522Z,57.84
2019-06-20T18:41:42.030Z,57.80
2019-06-20T18:44:11.251Z,58.02
2019-06-20T18:46:40.354Z,58.33
2019-06-20T18:49:09.396Z,58.85
2019-06-20T18:51:39.071Z,59.03
2019-06-20T18:54:08.436Z,60.40
2019-06-20T18:56:37.712Z,59.75
2019-06-20T18:59:06.913Z,60.03
2019-06-20T19:01:39.022Z,60.47
2019-06-20T19:04:08.073Z,60.78
2019-06-20T19:06:37.173Z,60.93
2019-06-20T19:09:08.322Z,61.29
2019-06-20T19:11:37.484Z,61.58
2019-06-20T19:14:07.157Z,61.43
2019-06-20T19:16:37.492Z,61.28
2019-06-20T19:19:07.002Z,61.29
2019-06-20T19:21:36.363Z,61.99
2019-06-20T19:24:05.634Z,62.43
2019-06-20T19:26:34.857Z,62.94
2019-06-20T19:29:04.165Z,62.85
2019-06-20T19:31:33.253Z,62.54
2019-06-20T19:34:02.525Z,62.92
2019-06-20T19:36:31.629Z,63.45
2019-06-20T19:39:00.935Z,63.19
2019-06-20T19:41:30.034Z,63.62
2019-06-20T19:43:59.247Z,63.16
2019-06-20T19:46:28.317Z,63.78
2019-06-20T19:48:57.795Z,63.50
2019-06-20T19:51:26.903Z,63.48
2019-06-20T19:53:56.409Z,63.25
2019-06-20T19:56:25.514Z,63.61
2019-06-20T19:58:54.589Z,64.06
2019-06-20T20:01:23.974Z,64.02
2019-06-20T20:03:53.055Z,64.04
2019-06-20T20:06:22.198Z,63.46
2019-06-20T20:08:51.383Z,63.14
2019-06-20T20:11:20.639Z,64.17
2019-06-20T20:13:49.821Z,64.48
2019-06-20T20:16:19.056Z,64.76
2019-06-20T20:18:48.333Z,64.85
2019-06-20T20:21:17.462Z,65.53
2019-06-20T20:23:46.655Z,65.82
2019-06-20T20:26:16.020Z,66.35
2019-06-20T20:28:45.505Z,66.57
2019-06-20T20:31:14.615Z,66.18
2019-06-20T20:33:43.726Z,66.52
2019-06-20T20:36:24.330Z,66.78
2019-06-20T20:38:43.973Z,67.19
2019-06-20T20:41:13.254Z,67.48
2019-06-20T20:43:42.638Z,67.59
2019-06-20T20:46:12.705Z,68.96
2019-06-20T20:48:41.886Z,69.49
2019-06-20T20:51:11.027Z,70.12
2019-06-20T20:53:40.470Z,70.96
2019-06-20T20:56:09.637Z,71.77
2019-06-20T20:58:38.873Z,71.99
2019-06-20T21:01:20.360Z,72.77
2019-06-20T21:03:49.455Z,73.18
2019-06-20T21:06:19.016Z,73.93
2019-06-20T21:08:48.242Z,74.74
2019-06-20T21:11:17.470Z,75.38
2019-06-20T21:13:46.850Z,75.10
2019-06-20T21:16:16.020Z,75.77
2019-06-20T21:18:45.269Z,75.76
2019-06-20T21:21:14.566Z,75.76
2019-06-20T21:23:43.756Z,75.76
2019-06-20T21:26:12.952Z,75.55
2019-06-20T21:28:42.008Z,76.31
2019-06-20T21:31:11.309Z,76.50
2019-06-20T21:33:40.437Z,77.08
2019-06-20T21:36:09.742Z,77.41
2019-06-20T21:38:39.122Z,77.97
2019-06-20T21:41:08.195Z,78.19
2019-06-20T21:43:37.574Z,78.32
2019-06-20T21:46:07.062Z,78.37
2019-06-20T21:48:36.200Z,78.31
2019-06-20T21:51:05.413Z,78.42
2019-06-20T21:53:34.825Z,78.23
2019-06-20T21:56:03.925Z,78.19
2019-06-20T21:58:33.128Z,77.71
2019-06-20T22:01:03.081Z,77.44
2019-06-20T22:03:32.149Z,77.50
2019-06-20T22:06:01.365Z,77.40
2019-06-20T22:08:30.660Z,77.26
2019-06-20T22:10:59.828Z,76.94
2019-06-20T22:13:29.109Z,77.06
2019-06-20T22:15:58.316Z,76.94
2019-06-20T22:18:27.887Z,76.39
2019-06-20T22:20:57.041Z,75.86
2019-06-20T22:23:26.180Z,75.81
2019-06-20T22:25:55.299Z,76.00
2019-06-20T22:28:24.608Z,75.21
2019-06-20T22:30:54.573Z,75.39
2019-06-20T22:33:23.811Z,75.61
2019-06-20T22:35:52.964Z,75.44
2019-06-20T22:38:22.389Z,75.66
2019-06-20T22:40:51.558Z,75.74
2019-06-20T22:43:20.701Z,75.37
2019-06-20T22:45:49.880Z,75.23
2019-06-20T22:48:19.122Z,75.34
2019-06-20T22:50:50.300Z,74.97
2019-06-20T22:53:19.522Z,75.05
2019-06-20T22:55:48.753Z,75.30
2019-06-20T22:58:18.002Z,75.37
2019-06-20T23:00:47.222Z,76.15
2019-06-20T23:03:16.471Z,76.57
2019-06-20T23:05:45.750Z,76.69
2019-06-20T23:08:14.832Z,76.60
2019-06-20T23:10:44.149Z,76.60
2019-06-20T23:13:13.606Z,76.84
2019-06-20T23:15:42.707Z,76.87
2019-06-20T23:18:11.754Z,76.63
2019-06-20T23:20:41.102Z,76.91
2019-06-20T23:23:10.192Z,77.45
2019-06-20T23:25:41.186Z,77.78
2019-06-20T23:28:10.531Z,77.87
2019-06-20T23:30:39.799Z,78.16
2019-06-20T23:33:08.937Z,78.26
2019-06-20T23:35:38.218Z,78.49
2019-06-20T23:38:07.500Z,78.73
2019-06-20T23:40:36.812Z,78.94
2019-06-20T23:43:06.069Z,79.09
2019-06-20T23:45:35.155Z,79.05
2019-06-20T23:48:04.457Z,79.26
2019-06-20T23:50:33.637Z,79.39
2019-06-20T23:53:08.024Z,79.45
2019-06-20T23:55:37.082Z,79.40
2019-06-20T23:58:06.233Z,79.12
